createdAt,value
2022-08-26T00:01:56.222Z,33.55
2022-08-26T00:04:25.769Z,32.10
2022-08-26T00:06:57.008Z,32.97
2022-08-26T00:09:25.331Z,38.03
2022-08-26T00:11:54.405Z,39.08
2022-08-26T00:14:27.057Z,35.10
2022-08-26T00:16:56.931Z,40.00
2022-08-26T00:19:25.000Z,31.65
2022-08-26T00:21:52.277Z,34.67
2022-08-26T00:24:21.894Z,40.65
2022-08-26T00:26:50.095Z,37.08
2022-08-26T00:29:19.564Z,32.05
2022-08-26T00:31:48.876Z,33.90
2022-08-26T00:34:19.626Z,34.75
2022-08-26T00:36:49.366Z,35.08
2022-08-26T00:39:20.663Z,35.20
2022-08-26T00:41:48.845Z,35.53
2022-08-26T00:44:19.833Z,26.40
2022-08-26T00:46:58.494Z,35.45
2022-08-26T00:49:39.854Z,38.30
2022-08-26T00:52:14.702Z,30.60
2022-08-26T00:54:49.579Z,35.75
2022-08-26T00:57:18.893Z,27.63
2022-08-26T00:59:54.432Z,33.78
2022-08-26T01:02:21.850Z,34.45
2022-08-26T01:05:03.358Z,28.10
2022-08-26T01:07:32.673Z,31.98
2022-08-26T01:10:06.012Z,31.13
2022-08-26T01:12:38.906Z,25.50
2022-08-26T01:15:10.244Z,33.13
2022-08-26T01:17:39.119Z,27.00
2022-08-26T01:20:19.461Z,29.02
2022-08-26T01:22:54.161Z,29.42
2022-08-26T01:25:24.195Z,34.70
2022-08-26T01:27:52.687Z,29.17
2022-08-26T01:30:21.167Z,30.65
2022-08-26T01:32:50.663Z,28.65
2022-08-26T01:35:19.374Z,29.17
2022-08-26T01:37:50.075Z,38.35
2022-08-26T01:40:25.778Z,30.67
2022-08-26T01:42:54.720Z,39.67
2022-08-26T01:45:25.594Z,28.63
2022-08-26T01:47:56.830Z,31.02
2022-08-26T01:50:31.982Z,31.35
2022-08-26T01:53:02.887Z,28.00
2022-08-26T01:55:33.499Z,33.10
2022-08-26T01:58:05.702Z,35.22
2022-08-26T02:00:34.506Z,28.25
2022-08-26T02:03:17.136Z,29.50
2022-08-26T02:05:54.471Z,29.92
2022-08-26T02:08:42.152Z,32.05
2022-08-26T02:11:09.815Z,25.95
2022-08-26T02:13:52.375Z,23.20
2022-08-26T02:16:26.010Z,25.75
2022-08-26T02:18:54.363Z,25.42
2022-08-26T02:21:25.060Z,25.80
2022-08-26T02:23:52.710Z,27.15
2022-08-26T02:26:27.020Z,24.45
2022-08-26T02:29:06.138Z,26.42
2022-08-26T02:31:34.740Z,27.33
2022-08-26T02:34:11.546Z,26.13
2022-08-26T02:36:39.583Z,34.72
2022-08-26T02:39:07.799Z,34.47
2022-08-26T02:41:35.547Z,35.55
2022-08-26T02:44:12.200Z,35.83
2022-08-26T02:46:39.341Z,39.63
2022-08-26T02:49:07.197Z,29.90
2022-08-26T02:51:34.461Z,34.45
2022-08-26T02:54:01.513Z,30.25
2022-08-26T02:56:29.557Z,40.75
2022-08-26T02:58:59.344Z,34.70
2022-08-26T03:01:30.140Z,37.75
2022-08-26T03:03:57.870Z,45.13
2022-08-26T03:06:25.255Z,40.20
2022-08-26T03:08:53.038Z,34.70
2022-08-26T03:11:20.418Z,41.03
2022-08-26T03:13:49.635Z,34.85
2022-08-26T03:16:17.668Z,37.47
2022-08-26T03:18:52.355Z,31.17
2022-08-26T03:21:21.138Z,35.03
2022-08-26T03:23:48.311Z,35.22
2022-08-26T03:26:16.474Z,35.55
2022-08-26T03:29:02.099Z,38.33
2022-08-26T03:31:29.927Z,36.58
2022-08-26T03:33:59.599Z,38.00
2022-08-26T03:36:27.890Z,40.85
2022-08-26T03:38:56.673Z,36.00
2022-08-26T03:41:23.917Z,34.50
2022-08-26T03:43:51.156Z,35.90
2022-08-26T03:46:20.220Z,35.92
2022-08-26T03:48:48.231Z,39.88
2022-08-26T03:51:19.230Z,37.65
2022-08-26T03:53:48.328Z,35.83
2022-08-26T03:56:15.821Z,33.13
2022-08-26T03:58:44.692Z,34.95
2022-08-26T04:01:16.159Z,40.53
2022-08-26T04:04:00.166Z,32.90
2022-08-26T04:06:43.115Z,30.48
2022-08-26T04:09:15.679Z,26.20
2022-08-26T04:11:44.795Z,26.25
2022-08-26T04:14:20.008Z,24.17
2022-08-26T04:16:47.862Z,28.63
2022-08-26T04:19:16.763Z,28.70
2022-08-26T04:21:45.172Z,30.50
2022-08-26T04:24:14.292Z,31.65
2022-08-26T04:26:42.911Z,22.88
2022-08-26T04:29:24.686Z,28.65
2022-08-26T04:31:55.538Z,28.95
2022-08-26T04:34:28.694Z,27.83
2022-08-26T04:36:57.828Z,22.67
2022-08-26T04:39:25.319Z,24.73
2022-08-26T04:41:55.257Z,22.80
2022-08-26T04:44:25.647Z,24.77
2022-08-26T04:46:53.509Z,22.13
2022-08-26T04:49:22.686Z,23.73
2022-08-26T04:51:49.919Z,22.42
2022-08-26T04:54:17.158Z,20.40
2022-08-26T04:56:47.506Z,23.75
2022-08-26T04:59:20.524Z,28.77
2022-08-26T05:01:51.865Z,23.35
2022-08-26T05:04:20.377Z,22.25
2022-08-26T05:06:48.988Z,21.05
2022-08-26T05:09:21.506Z,22.92
2022-08-26T05:11:51.908Z,27.35
2022-08-26T05:14:21.659Z,28.08
2022-08-26T05:16:49.966Z,22.52
2022-08-26T05:19:18.911Z,27.10
2022-08-26T05:21:48.536Z,30.83
2022-08-26T05:24:17.199Z,22.85
2022-08-26T05:26:48.083Z,20.10
2022-08-26T05:29:16.842Z,21.90
2022-08-26T05:31:44.314Z,22.70
2022-08-26T05:34:11.546Z,25.58
2022-08-26T05:36:39.320Z,23.42
2022-08-26T05:39:10.611Z,27.92
2022-08-26T05:41:40.901Z,27.45
2022-08-26T05:44:11.518Z,16.08
2022-08-26T05:46:40.036Z,21.83
2022-08-26T05:49:12.456Z,19.95
2022-08-26T05:51:41.975Z,20.05
2022-08-26T05:54:10.450Z,23.80
2022-08-26T05:56:38.872Z,20.77
2022-08-26T05:59:14.244Z,19.40
2022-08-26T06:01:43.809Z,24.55
2022-08-26T06:04:11.607Z,19.42
2022-08-26T06:06:41.886Z,22.08
2022-08-26T06:09:11.170Z,16.42
2022-08-26T06:11:39.352Z,20.35
2022-08-26T06:14:08.200Z,22.67
2022-08-26T06:16:42.157Z,22.98
2022-08-26T06:19:11.638Z,22.17
2022-08-26T06:21:41.606Z,17.38
2022-08-26T06:24:31.563Z,19.23
2022-08-26T06:27:04.480Z,20.52
2022-08-26T06:29:33.867Z,17.13
2022-08-26T06:32:02.849Z,19.13
2022-08-26T06:34:30.960Z,16.38
2022-08-26T06:37:01.925Z,18.33
2022-08-26T06:39:31.084Z,16.00
2022-08-26T06:42:00.507Z,18.02
2022-08-26T06:44:28.254Z,15.13
2022-08-26T06:46:55.526Z,17.20
2022-08-26T06:49:25.825Z,17.75
2022-08-26T06:54:23.912Z,13.55
2022-08-26T06:56:57.158Z,15.05
2022-08-26T06:59:24.970Z,19.20
2022-08-26T07:01:54.979Z,13.65
2022-08-26T07:04:23.410Z,13.10
2022-08-26T07:06:54.166Z,13.75
2022-08-26T07:09:29.019Z,13.63
2022-08-26T07:11:56.744Z,11.18
2022-08-26T07:14:26.359Z,12.27
2022-08-26T07:16:55.054Z,14.70
2022-08-26T07:19:30.087Z,11.35
2022-08-26T07:22:05.671Z,13.57
2022-08-26T07:24:38.679Z,17.35
2022-08-26T07:27:08.884Z,12.38
2022-08-26T07:29:37.732Z,11.80
2022-08-26T07:32:06.526Z,16.70
2022-08-26T07:34:34.547Z,16.17
2022-08-26T07:37:02.001Z,13.43
2022-08-26T07:39:31.621Z,15.48
2022-08-26T07:42:07.689Z,11.80
2022-08-26T07:44:42.079Z,14.38
2022-08-26T07:47:24.860Z,13.73
2022-08-26T07:49:57.814Z,16.20
2022-08-26T07:52:29.143Z,14.27
2022-08-26T07:55:01.655Z,13.00
2022-08-26T07:57:31.071Z,14.10
2022-08-26T07:59:59.712Z,20.38
2022-08-26T08:02:28.681Z,15.98
2022-08-26T08:04:56.885Z,13.90
2022-08-26T08:07:38.674Z,14.75
2022-08-26T08:10:18.692Z,15.20
2022-08-26T08:12:48.147Z,19.27
2022-08-26T08:15:17.811Z,22.70
2022-08-26T08:17:45.031Z,19.30
2022-08-26T08:20:15.324Z,18.38
2022-08-26T08:22:43.300Z,28.85
2022-08-26T08:25:12.644Z,20.42
2022-08-26T08:27:42.463Z,19.52
2022-08-26T08:30:10.979Z,14.18
2022-08-26T08:32:43.656Z,17.25
2022-08-26T08:35:13.613Z,19.15
2022-08-26T08:37:43.818Z,14.90
2022-08-26T08:40:19.201Z,16.85
2022-08-26T08:42:47.221Z,20.25
2022-08-26T08:45:42.325Z,16.52
2022-08-26T08:48:31.740Z,15.55
2022-08-26T08:51:28.371Z,15.07
2022-08-26T08:54:02.866Z,17.13
2022-08-26T08:56:38.295Z,15.45
2022-08-26T08:59:05.395Z,15.85
2022-08-26T09:01:53.975Z,15.77
2022-08-26T09:04:40.001Z,17.05
2022-08-26T09:07:16.787Z,14.75
2022-08-26T09:09:47.195Z,15.80
2022-08-26T09:12:29.365Z,11.60
2022-08-26T09:15:08.329Z,12.77
2022-08-26T09:17:47.384Z,12.85
2022-08-26T09:20:23.644Z,12.35
2022-08-26T09:22:51.569Z,11.25
2022-08-26T09:25:18.789Z,15.18
2022-08-26T09:27:50.557Z,16.02
2022-08-26T09:30:28.364Z,18.05
2022-08-26T09:33:10.158Z,15.90
2022-08-26T09:35:47.515Z,14.27
2022-08-26T09:38:33.057Z,12.23
2022-08-26T09:41:20.275Z,13.68
2022-08-26T09:44:07.134Z,12.65
2022-08-26T09:46:55.871Z,14.48
2022-08-26T09:49:41.295Z,16.45
2022-08-26T09:52:21.226Z,15.07
2022-08-26T09:55:03.525Z,17.33
2022-08-26T09:57:51.133Z,14.20
2022-08-26T10:00:26.905Z,10.52
2022-08-26T10:02:57.943Z,13.90
2022-08-26T10:05:47.679Z,12.85
2022-08-26T10:08:27.546Z,13.07
2022-08-26T10:10:57.687Z,16.38
2022-08-26T10:13:49.304Z,12.27
2022-08-26T10:16:22.429Z,12.70
2022-08-26T10:19:02.925Z,13.48
2022-08-26T10:21:42.700Z,10.07
2022-08-26T10:24:15.116Z,11.18
2022-08-26T10:26:52.789Z,9.95
2022-08-26T10:29:26.231Z,16.50
2022-08-26T10:32:21.563Z,10.00
2022-08-26T10:34:48.785Z,14.48
2022-08-26T10:37:21.664Z,8.77
2022-08-26T10:39:59.249Z,10.75
2022-08-26T10:42:43.135Z,11.00
2022-08-26T10:45:14.994Z,13.50
2022-08-26T10:47:55.980Z,13.00
2022-08-26T10:50:30.292Z,10.10
2022-08-26T10:53:25.328Z,11.77
2022-08-26T10:56:06.537Z,9.43
2022-08-26T10:59:23.207Z,12.10
2022-08-26T11:02:07.641Z,16.75
2022-08-26T11:05:06.055Z,11.48
2022-08-26T11:07:46.442Z,10.07
2022-08-26T11:10:19.506Z,9.43
2022-08-26T11:12:50.296Z,9.20
2022-08-26T11:15:24.510Z,10.17
2022-08-26T11:17:53.282Z,9.63
2022-08-26T11:20:25.658Z,11.05
2022-08-26T11:22:54.842Z,13.13
2022-08-26T11:25:29.690Z,12.40
2022-08-26T11:27:59.921Z,14.50
2022-08-26T11:30:40.934Z,9.98
2022-08-26T11:33:08.699Z,10.93
2022-08-26T11:35:37.313Z,11.68
2022-08-26T11:38:13.530Z,18.75
2022-08-26T11:40:43.910Z,11.77
2022-08-26T11:43:11.319Z,10.73
2022-08-26T11:45:41.722Z,14.70
2022-08-26T11:48:16.944Z,14.88
2022-08-26T11:51:21.246Z,15.88
2022-08-26T11:53:50.312Z,13.55
2022-08-26T11:56:33.315Z,15.20
2022-08-26T11:59:04.021Z,14.73
2022-08-26T12:01:53.844Z,17.73
2022-08-26T12:04:30.350Z,12.25
2022-08-26T12:07:00.802Z,12.75
2022-08-26T12:09:31.764Z,11.52
2022-08-26T12:12:17.325Z,12.75
2022-08-26T12:14:45.321Z,13.60
2022-08-26T12:17:16.473Z,9.20
2022-08-26T12:19:43.855Z,11.70
2022-08-26T12:22:34.726Z,10.93
2022-08-26T12:25:06.185Z,8.23
2022-08-26T12:27:39.892Z,13.13
2022-08-26T12:30:17.995Z,11.13
2022-08-26T12:33:22.082Z,9.57
2022-08-26T12:35:56.519Z,10.18
2022-08-26T12:38:26.256Z,9.30
2022-08-26T12:40:54.156Z,7.88
2022-08-26T12:43:43.065Z,10.80
2022-08-26T12:46:18.020Z,10.68
2022-08-26T12:48:49.831Z,10.90
2022-08-26T12:51:26.315Z,11.00
2022-08-26T12:53:54.178Z,17.50
2022-08-26T12:56:31.349Z,13.68
2022-08-26T12:59:06.303Z,11.75
2022-08-26T13:01:39.874Z,10.48
2022-08-26T13:04:07.403Z,11.35
2022-08-26T13:06:35.160Z,11.55
2022-08-26T13:09:22.196Z,9.60
2022-08-26T13:11:49.354Z,11.20
2022-08-26T13:14:23.953Z,11.85
2022-08-26T13:16:52.226Z,11.60
2022-08-26T13:19:29.684Z,10.80
2022-08-26T13:21:59.632Z,18.17
2022-08-26T13:24:34.652Z,11.30
2022-08-26T13:27:03.447Z,10.55
2022-08-26T13:29:30.853Z,11.68
2022-08-26T13:31:59.328Z,12.18
2022-08-26T13:34:27.803Z,9.40
2022-08-26T13:36:58.722Z,10.50
2022-08-26T13:39:27.153Z,14.73
2022-08-26T13:41:54.868Z,9.95
2022-08-26T13:44:24.609Z,11.32
2022-08-26T13:46:52.043Z,11.23
2022-08-26T13:49:19.352Z,9.65
2022-08-26T13:51:46.545Z,10.70
2022-08-26T13:54:13.673Z,12.05
2022-08-26T13:56:40.827Z,13.18
2022-08-26T13:59:08.034Z,12.23
2022-08-26T14:01:36.289Z,14.18
2022-08-26T14:04:03.773Z,8.52
2022-08-26T14:06:31.465Z,15.13
2022-08-26T14:08:58.705Z,10.30
2022-08-26T14:11:26.229Z,10.10
2022-08-26T14:13:53.438Z,16.38
2022-08-26T14:16:27.746Z,13.13
2022-08-26T14:18:55.120Z,13.85
2022-08-26T14:21:23.253Z,15.35
2022-08-26T14:23:50.446Z,19.92
2022-08-26T14:26:28.457Z,14.02
2022-08-26T14:29:00.380Z,14.85
2022-08-26T14:31:29.596Z,11.03
2022-08-26T14:34:02.846Z,12.50
2022-08-26T14:36:32.628Z,13.65
2022-08-26T14:39:11.567Z,12.55
2022-08-26T14:41:54.591Z,15.38
2022-08-26T14:44:26.442Z,16.88
2022-08-26T14:46:54.771Z,11.98
2022-08-26T14:49:23.563Z,12.57
2022-08-26T14:51:50.789Z,16.40
2022-08-26T14:54:19.052Z,18.20
2022-08-26T14:56:52.621Z,16.55
2022-08-26T14:59:26.476Z,15.55
2022-08-26T15:01:55.100Z,13.57
2022-08-26T15:04:23.721Z,17.65
2022-08-26T15:06:52.751Z,23.92
2022-08-26T15:09:19.962Z,19.15
2022-08-26T15:11:47.794Z,17.33
2022-08-26T15:14:19.640Z,19.25
2022-08-26T15:16:54.074Z,16.48
2022-08-26T15:19:21.979Z,24.20
2022-08-26T15:21:49.970Z,16.10
2022-08-26T15:24:19.782Z,21.73
2022-08-26T15:26:47.913Z,16.83
2022-08-26T15:29:15.515Z,15.75
2022-08-26T15:31:43.230Z,13.35
2022-08-26T15:34:16.427Z,14.30
2022-08-26T15:37:10.880Z,14.85
2022-08-26T15:39:38.518Z,16.88
2022-08-26T15:42:05.916Z,15.32
2022-08-26T15:44:34.238Z,15.73
2022-08-26T15:47:01.321Z,13.90
2022-08-26T15:49:28.485Z,12.75
2022-08-26T15:51:55.920Z,17.90
2022-08-26T15:54:24.476Z,21.15
2022-08-26T15:56:53.221Z,17.55
2022-08-26T15:59:21.853Z,21.58
2022-08-26T16:01:49.842Z,24.00
2022-08-26T16:04:18.737Z,25.77
2022-08-26T16:06:52.284Z,22.83
2022-08-26T16:09:27.060Z,27.92
2022-08-26T16:11:55.961Z,28.63
2022-08-26T16:14:24.120Z,26.58
2022-08-26T16:16:51.319Z,33.63
2022-08-26T16:19:18.514Z,28.65
2022-08-26T16:21:46.751Z,27.75
2022-08-26T16:24:28.385Z,26.05
2022-08-26T16:26:58.117Z,21.35
2022-08-26T16:29:25.248Z,24.67
2022-08-26T16:31:54.785Z,25.13
2022-08-26T16:34:22.597Z,21.15
2022-08-26T16:36:56.419Z,26.45
2022-08-26T16:39:26.210Z,26.00
2022-08-26T16:41:53.449Z,24.50
2022-08-26T16:44:22.183Z,23.02
2022-08-26T16:46:50.702Z,31.52
2022-08-26T16:49:25.612Z,23.63
2022-08-26T16:51:52.694Z,25.13
2022-08-26T16:54:19.837Z,28.65
2022-08-26T16:56:46.936Z,36.45
2022-08-26T16:59:14.037Z,35.58
2022-08-26T17:01:41.282Z,24.63
2022-08-26T17:04:08.738Z,28.88
2022-08-26T17:06:38.982Z,28.10
2022-08-26T17:09:06.664Z,30.33
2022-08-26T17:11:36.617Z,33.90
2022-08-26T17:14:04.469Z,23.95
2022-08-26T17:16:32.064Z,28.48
2022-08-26T17:19:00.311Z,27.38
2022-08-26T17:21:28.189Z,42.60
2022-08-26T17:23:56.386Z,32.10
2022-08-26T17:26:23.573Z,28.77
2022-08-26T17:28:51.669Z,33.33
2022-08-26T17:31:18.971Z,35.10
2022-08-26T17:33:50.272Z,29.02
2022-08-26T17:36:27.486Z,21.98
2022-08-26T17:38:56.986Z,25.90
2022-08-26T17:41:25.215Z,30.98
2022-08-26T17:43:52.673Z,27.52
2022-08-26T17:46:19.839Z,70.82
2022-08-26T17:48:48.441Z,50.03
2022-08-26T17:51:18.239Z,41.80
2022-08-26T17:53:46.831Z,36.85
2022-08-26T17:56:17.320Z,30.83
2022-08-26T17:58:50.990Z,31.23
2022-08-26T18:01:26.216Z,39.17
2022-08-26T18:03:59.556Z,31.90
2022-08-26T18:06:28.498Z,30.05
2022-08-26T18:08:55.648Z,36.78
2022-08-26T18:11:24.568Z,30.45
2022-08-26T18:13:51.929Z,39.15
2022-08-26T18:16:19.985Z,23.98
2022-08-26T18:18:48.684Z,29.63
2022-08-26T18:21:18.968Z,20.00
2022-08-26T18:23:47.315Z,27.58
2022-08-26T18:26:30.925Z,25.95
2022-08-26T18:28:59.443Z,22.08
2022-08-26T18:31:29.975Z,24.92
2022-08-26T18:34:00.379Z,24.63
2022-08-26T18:36:34.575Z,26.67
2022-08-26T18:39:02.804Z,35.45
2022-08-26T18:41:32.703Z,25.30
2022-08-26T18:44:00.570Z,24.33
2022-08-26T18:46:28.474Z,28.63
2022-08-26T18:49:01.941Z,33.38
2022-08-26T18:51:33.885Z,32.90
2022-08-26T18:54:04.158Z,24.88
2022-08-26T18:56:32.799Z,72.20
2022-08-26T18:59:00.599Z,54.00
2022-08-26T19:01:30.164Z,27.70
2022-08-26T19:03:59.580Z,19.10
2022-08-26T19:06:29.578Z,19.20
2022-08-26T19:08:57.914Z,16.83
2022-08-26T19:11:31.371Z,18.95
2022-08-26T19:14:01.767Z,13.93
2022-08-26T19:16:30.237Z,24.83
2022-08-26T19:18:59.067Z,15.73
2022-08-26T19:21:26.234Z,20.05
2022-08-26T19:23:58.116Z,55.80
2022-08-26T19:26:27.001Z,67.88
2022-08-26T19:28:58.019Z,48.75
2022-08-26T19:31:25.956Z,37.75
2022-08-26T19:33:53.315Z,31.98
2022-08-26T19:36:23.754Z,35.63
2022-08-26T19:38:51.738Z,62.17
2022-08-26T19:41:27.763Z,75.30
2022-08-26T19:44:13.200Z,87.65
2022-08-26T19:46:42.802Z,51.63
2022-08-26T19:49:12.754Z,66.80
2022-08-26T19:51:39.907Z,26.13
2022-08-26T19:54:06.946Z,15.45
2022-08-26T19:56:35.059Z,11.80
2022-08-26T19:59:02.237Z,14.68
2022-08-26T20:01:31.857Z,14.23
2022-08-26T20:03:59.004Z,13.63
2022-08-26T20:06:29.169Z,11.88
2022-08-26T20:08:56.664Z,10.68
2022-08-26T20:11:24.840Z,10.98
2022-08-26T20:13:54.060Z,16.48
2022-08-26T20:16:21.419Z,16.67
2022-08-26T20:19:08.121Z,18.75
2022-08-26T20:21:48.058Z,20.60
2022-08-26T20:24:18.512Z,14.85
2022-08-26T20:26:45.674Z,10.52
2022-08-26T20:29:15.087Z,17.02
2022-08-26T20:31:44.243Z,16.92
2022-08-26T20:34:13.428Z,20.75
2022-08-26T20:36:41.760Z,21.50
2022-08-26T20:39:10.646Z,21.02
2022-08-26T20:41:38.636Z,17.10
2022-08-26T20:44:13.884Z,15.27
2022-08-26T20:46:41.371Z,18.65
2022-08-26T20:49:08.996Z,15.23
2022-08-26T20:51:37.512Z,16.17
2022-08-26T20:54:07.093Z,16.15
2022-08-26T20:56:35.238Z,13.13
2022-08-26T20:59:03.089Z,13.95
2022-08-26T21:01:34.785Z,15.80
2022-08-26T21:04:06.818Z,15.68
2022-08-26T21:06:34.753Z,15.38
2022-08-26T21:09:06.575Z,18.67
2022-08-26T21:11:35.304Z,12.20
2022-08-26T21:14:06.689Z,14.02
2022-08-26T21:16:43.567Z,16.52
2022-08-26T21:19:15.417Z,18.95
2022-08-26T21:21:42.696Z,15.35
2022-08-26T21:24:10.476Z,18.63
2022-08-26T21:26:38.136Z,14.38
2022-08-26T21:29:06.857Z,16.30
2022-08-26T21:31:35.151Z,14.45
2022-08-26T21:34:02.868Z,17.38
2022-08-26T21:36:30.070Z,21.63
2022-08-26T21:38:58.719Z,14.52
2022-08-26T21:41:27.258Z,16.88
2022-08-26T21:43:59.374Z,14.93
2022-08-26T21:46:29.231Z,21.33
2022-08-26T21:49:02.517Z,18.80
2022-08-26T21:51:32.951Z,15.30
2022-08-26T21:54:10.513Z,14.65
2022-08-26T21:56:41.430Z,15.98
2022-08-26T21:59:09.210Z,16.80
2022-08-26T22:01:36.761Z,18.45
2022-08-26T22:04:06.130Z,15.13
2022-08-26T22:06:39.054Z,16.63
2022-08-26T22:09:18.208Z,14.90
2022-08-26T22:11:46.581Z,19.92
2022-08-26T22:14:14.825Z,19.52
2022-08-26T22:16:42.051Z,22.40
2022-08-26T22:19:17.675Z,27.17
2022-08-26T22:21:45.432Z,26.13
2022-08-26T22:24:12.766Z,26.13
2022-08-26T22:26:40.085Z,24.63
2022-08-26T22:29:07.813Z,37.47
2022-08-26T22:31:37.618Z,21.15
2022-08-26T22:34:16.045Z,27.52
2022-08-26T22:37:24.134Z,23.58
2022-08-26T22:40:26.592Z,22.52
2022-08-26T22:50:26.942Z,26.48
2022-08-26T22:54:01.567Z,25.65
2022-08-26T22:56:46.512Z,21.02
2022-08-26T22:59:21.048Z,16.42
2022-08-26T23:01:50.887Z,17.95
2022-08-26T23:04:36.669Z,17.48
2022-08-26T23:07:14.687Z,17.83
2022-08-26T23:09:55.768Z,20.63
2022-08-26T23:12:23.303Z,19.90
2022-08-26T23:14:50.853Z,22.40
2022-08-26T23:17:28.612Z,24.52
2022-08-26T23:20:19.055Z,21.45
2022-08-26T23:23:18.961Z,19.42
2022-08-26T23:26:31.810Z,21.42
2022-08-26T23:29:43.573Z,25.65
2022-08-26T23:32:35.041Z,22.45
2022-08-26T23:35:17.393Z,27.85
2022-08-26T23:38:22.609Z,21.58
2022-08-26T23:41:03.936Z,24.73
2022-08-26T23:44:08.120Z,22.42
2022-08-26T23:47:12.923Z,20.90
2022-08-26T23:49:59.607Z,18.05
2022-08-26T23:52:49.370Z,18.95
2022-08-26T23:55:43.093Z,18.23
2022-08-26T23:58:47.197Z,20.60
